sensor_id;sensor_type;location;lat;lon;timestamp;temperature;humidity
57108;DHT22;42987;52.916;6.542;2023-06-24T00:00:33;16.50;99.90
57108;DHT22;42987;52.916;6.542;2023-06-24T00:02:59;16.50;99.90
57108;DHT22;42987;52.916;6.542;2023-06-24T00:05:28;16.50;99.90
57108;DHT22;42987;52.916;6.542;2023-06-24T00:07:54;16.40;99.90
57108;DHT22;42987;52.916;6.542;2023-06-24T00:10:22;16.40;99.90
57108;DHT22;42987;52.916;6.542;2023-06-24T00:12:48;16.30;99.90
57108;DHT22;42987;52.916;6.542;2023-06-24T00:15:14;16.30;99.90
57108;DHT22;42987;52.916;6.542;2023-06-24T00:17:40;16.20;99.90
57108;DHT22;42987;52.916;6.542;2023-06-24T00:20:07;16.10;99.90
57108;DHT22;42987;52.916;6.542;2023-06-24T00:22:35;16.10;99.90
57108;DHT22;42987;52.916;6.542;2023-06-24T00:25:05;16.10;99.90
57108;DHT22;42987;52.916;6.542;2023-06-24T00:27:30;16.10;99.90
57108;DHT22;42987;52.916;6.542;2023-06-24T00:29:59;16.00;99.90
57108;DHT22;42987;52.916;6.542;2023-06-24T00:32:25;16.00;99.90
57108;DHT22;42987;52.916;6.542;2023-06-24T00:34:51;16.00;99.90
57108;DHT22;42987;52.916;6.542;2023-06-24T00:37:16;15.90;99.90
57108;DHT22;42987;52.916;6.542;2023-06-24T00:39:46;15.90;99.90
57108;DHT22;42987;52.916;6.542;2023-06-24T00:42:12;15.70;99.90
57108;DHT22;42987;52.916;6.542;2023-06-24T00:44:38;15.70;99.90
57108;DHT22;42987;52.916;6.542;2023-06-24T00:47:05;15.70;99.90
57108;DHT22;42987;52.916;6.542;2023-06-24T00:49:31;15.60;99.90
57108;DHT22;42987;52.916;6.542;2023-06-24T00:51:57;15.60;99.90
57108;DHT22;42987;52.916;6.542;2023-06-24T00:54:22;15.60;99.90
57108;DHT22;42987;52.916;6.542;2023-06-24T00:56:57;15.60;99.90
57108;DHT22;42987;52.916;6.542;2023-06-24T00:59:27;15.60;99.90
57108;DHT22;42987;52.916;6.542;2023-06-24T01:01:57;15.50;99.90
57108;DHT22;42987;52.916;6.542;2023-06-24T01:04:23;15.50;99.90
57108;DHT22;42987;52.916;6.542;2023-06-24T01:06:50;15.50;99.90
57108;DHT22;42987;52.916;6.542;2023-06-24T01:09:16;15.40;99.90
57108;DHT22;42987;52.916;6.542;2023-06-24T01:11:42;15.40;99.90
57108;DHT22;42987;52.916;6.542;2023-06-24T01:14:08;15.30;99.90
57108;DHT22;42987;52.916;6.542;2023-06-24T01:19:29;15.30;99.90
57108;DHT22;42987;52.916;6.542;2023-06-24T01:32:36;15.30;99.90
57108;DHT22;42987;52.916;6.542;2023-06-24T01:35:12;15.30;99.90
57108;DHT22;42987;52.916;6.542;2023-06-24T01:37:44;15.20;99.90
57108;DHT22;42987;52.916;6.542;2023-06-24T01:40:38;15.20;99.90
57108;DHT22;42987;52.916;6.542;2023-06-24T01:43:10;15.20;99.90
57108;DHT22;42987;52.916;6.542;2023-06-24T01:45:42;15.20;99.90
57108;DHT22;42987;52.916;6.542;2023-06-24T01:48:19;15.10;99.90
57108;DHT22;42987;52.916;6.542;2023-06-24T01:51:03;15.00;99.90
57108;DHT22;42987;52.916;6.542;2023-06-24T01:53:34;15.00;99.90
57108;DHT22;42987;52.916;6.542;2023-06-24T01:56:00;15.00;99.90
57108;DHT22;42987;52.916;6.542;2023-06-24T01:58:31;15.00;99.90
57108;DHT22;42987;52.916;6.542;2023-06-24T02:01:00;14.90;99.90
57108;DHT22;42987;52.916;6.542;2023-06-24T02:03:27;15.00;99.90
57108;DHT22;42987;52.916;6.542;2023-06-24T02:05:54;15.00;99.90
57108;DHT22;42987;52.916;6.542;2023-06-24T02:08:23;15.00;99.90
57108;DHT22;42987;52.916;6.542;2023-06-24T02:10:50;15.00;99.90
57108;DHT22;42987;52.916;6.542;2023-06-24T02:13:18;14.90;99.90
57108;DHT22;42987;52.916;6.542;2023-06-24T02:15:46;15.00;99.90
57108;DHT22;42987;52.916;6.542;2023-06-24T02:18:15;15.00;99.90
57108;DHT22;42987;52.916;6.542;2023-06-24T02:20:43;15.00;99.90
57108;DHT22;42987;52.916;6.542;2023-06-24T02:23:12;15.00;99.90
57108;DHT22;42987;52.916;6.542;2023-06-24T02:25:38;15.00;99.90
57108;DHT22;42987;52.916;6.542;2023-06-24T02:28:06;15.00;99.90
57108;DHT22;42987;52.916;6.542;2023-06-24T02:30:37;15.00;99.90
57108;DHT22;42987;52.916;6.542;2023-06-24T02:33:03;15.10;99.90
57108;DHT22;42987;52.916;6.542;2023-06-24T02:35:29;15.10;99.90
57108;DHT22;42987;52.916;6.542;2023-06-24T02:37:55;15.10;99.90
57108;DHT22;42987;52.916;6.542;2023-06-24T02:40:21;15.10;99.90
57108;DHT22;42987;52.916;6.542;2023-06-24T02:42:50;15.10;99.90
57108;DHT22;42987;52.916;6.542;2023-06-24T02:45:15;15.10;99.90
57108;DHT22;42987;52.916;6.542;2023-06-24T02:47:44;15.10;99.90
57108;DHT22;42987;52.916;6.542;2023-06-24T02:50:11;15.20;99.90
57108;DHT22;42987;52.916;6.542;2023-06-24T02:52:37;15.20;99.90
57108;DHT22;42987;52.916;6.542;2023-06-24T02:55:05;15.20;99.90
57108;DHT22;42987;52.916;6.542;2023-06-24T02:57:35;15.20;99.90
57108;DHT22;42987;52.916;6.542;2023-06-24T03:00:05;15.20;99.90
57108;DHT22;42987;52.916;6.542;2023-06-24T03:02:34;15.30;99.90
57108;DHT22;42987;52.916;6.542;2023-06-24T03:05:01;15.30;99.90
57108;DHT22;42987;52.916;6.542;2023-06-24T03:07:28;15.30;99.90
57108;DHT22;42987;52.916;6.542;2023-06-24T03:09:53;15.30;99.90
57108;DHT22;42987;52.916;6.542;2023-06-24T03:12:19;15.30;99.90
57108;DHT22;42987;52.916;6.542;2023-06-24T03:14:45;15.30;99.90
57108;DHT22;42987;52.916;6.542;2023-06-24T03:17:11;15.30;99.90
57108;DHT22;42987;52.916;6.542;2023-06-24T03:19:37;15.30;99.90
57108;DHT22;42987;52.916;6.542;2023-06-24T03:22:06;15.40;99.90
57108;DHT22;42987;52.916;6.542;2023-06-24T03:24:31;15.40;99.90
57108;DHT22;42987;52.916;6.542;2023-06-24T03:26:57;15.40;99.90
57108;DHT22;42987;52.916;6.542;2023-06-24T03:29:23;15.40;99.90
57108;DHT22;42987;52.916;6.542;2023-06-24T03:31:49;15.40;99.90
57108;DHT22;42987;52.916;6.542;2023-06-24T03:34:15;15.40;99.90
57108;DHT22;42987;52.916;6.542;2023-06-24T03:36:42;15.40;99.90
57108;DHT22;42987;52.916;6.542;2023-06-24T03:39:08;15.40;99.90
57108;DHT22;42987;52.916;6.542;2023-06-24T03:41:34;15.40;99.90
57108;DHT22;42987;52.916;6.542;2023-06-24T03:44:00;15.40;99.90
57108;DHT22;42987;52.916;6.542;2023-06-24T03:46:26;15.40;99.90
57108;DHT22;42987;52.916;6.542;2023-06-24T03:48:52;15.40;99.90
57108;DHT22;42987;52.916;6.542;2023-06-24T03:51:17;15.40;99.90
57108;DHT22;42987;52.916;6.542;2023-06-24T03:53:43;15.50;99.90
57108;DHT22;42987;52.916;6.542;2023-06-24T03:56:09;15.50;99.90
57108;DHT22;42987;52.916;6.542;2023-06-24T03:58:35;15.50;99.90
57108;DHT22;42987;52.916;6.542;2023-06-24T04:01:03;15.60;99.90
57108;DHT22;42987;52.916;6.542;2023-06-24T04:03:38;15.60;99.90
57108;DHT22;42987;52.916;6.542;2023-06-24T04:06:04;15.60;99.90
57108;DHT22;42987;52.916;6.542;2023-06-24T04:08:30;15.60;99.90
57108;DHT22;42987;52.916;6.542;2023-06-24T04:10:57;15.60;99.90
57108;DHT22;42987;52.916;6.542;2023-06-24T04:13:28;15.60;99.90
57108;DHT22;42987;52.916;6.542;2023-06-24T04:15:54;15.60;99.90
57108;DHT22;42987;52.916;6.542;2023-06-24T04:18:20;15.60;99.90
57108;DHT22;42987;52.916;6.542;2023-06-24T04:20:46;15.60;99.90
57108;DHT22;42987;52.916;6.542;2023-06-24T04:23:20;15.60;99.90
57108;DHT22;42987;52.916;6.542;2023-06-24T04:25:46;15.60;99.90
57108;DHT22;42987;52.916;6.542;2023-06-24T04:28:12;15.70;99.90
57108;DHT22;42987;52.916;6.542;2023-06-24T04:30:38;15.60;99.90
57108;DHT22;42987;52.916;6.542;2023-06-24T04:33:04;15.70;99.90
57108;DHT22;42987;52.916;6.542;2023-06-24T04:35:31;15.70;99.90
57108;DHT22;42987;52.916;6.542;2023-06-24T04:38:00;15.80;99.90
57108;DHT22;42987;52.916;6.542;2023-06-24T04:40:31;15.80;99.90
57108;DHT22;42987;52.916;6.542;2023-06-24T04:42:58;15.80;99.90
57108;DHT22;42987;52.916;6.542;2023-06-24T04:45:24;15.90;99.90
57108;DHT22;42987;52.916;6.542;2023-06-24T04:47:49;16.00;99.90
57108;DHT22;42987;52.916;6.542;2023-06-24T04:50:15;16.00;99.90
57108;DHT22;42987;52.916;6.542;2023-06-24T04:52:41;16.10;99.90
57108;DHT22;42987;52.916;6.542;2023-06-24T04:55:07;16.10;99.90
57108;DHT22;42987;52.916;6.542;2023-06-24T04:57:33;16.10;99.90
57108;DHT22;42987;52.916;6.542;2023-06-24T04:59:59;16.20;99.90
57108;DHT22;42987;52.916;6.542;2023-06-24T05:02:25;16.20;99.90
57108;DHT22;42987;52.916;6.542;2023-06-24T05:04:52;16.30;99.90
57108;DHT22;42987;52.916;6.542;2023-06-24T05:07:18;16.30;99.90
57108;DHT22;42987;52.916;6.542;2023-06-24T05:09:48;16.40;99.90
57108;DHT22;42987;52.916;6.542;2023-06-24T05:12:14;16.40;99.90
57108;DHT22;42987;52.916;6.542;2023-06-24T05:14:40;16.40;99.90
57108;DHT22;42987;52.916;6.542;2023-06-24T05:17:06;16.50;99.90
57108;DHT22;42987;52.916;6.542;2023-06-24T05:19:31;16.50;99.90
57108;DHT22;42987;52.916;6.542;2023-06-24T05:22:00;16.60;99.90
57108;DHT22;42987;52.916;6.542;2023-06-24T05:24:26;16.70;99.90
57108;DHT22;42987;52.916;6.542;2023-06-24T05:26:52;16.70;99.90
57108;DHT22;42987;52.916;6.542;2023-06-24T05:29:18;16.80;99.90
57108;DHT22;42987;52.916;6.542;2023-06-24T05:31:44;16.80;99.90
57108;DHT22;42987;52.916;6.542;2023-06-24T05:34:10;16.90;99.90
57108;DHT22;42987;52.916;6.542;2023-06-24T05:36:38;17.00;99.90
57108;DHT22;42987;52.916;6.542;2023-06-24T05:39:04;17.00;99.90
57108;DHT22;42987;52.916;6.542;2023-06-24T05:41:33;17.10;99.90
57108;DHT22;42987;52.916;6.542;2023-06-24T05:44:04;17.20;99.90
57108;DHT22;42987;52.916;6.542;2023-06-24T05:46:30;17.20;99.90
57108;DHT22;42987;52.916;6.542;2023-06-24T05:48:56;17.30;99.90
57108;DHT22;42987;52.916;6.542;2023-06-24T05:51:22;17.40;99.90
57108;DHT22;42987;52.916;6.542;2023-06-24T05:53:48;17.50;99.90
57108;DHT22;42987;52.916;6.542;2023-06-24T05:56:14;17.60;99.90
57108;DHT22;42987;52.916;6.542;2023-06-24T05:58:40;17.70;99.90
57108;DHT22;42987;52.916;6.542;2023-06-24T06:01:08;17.80;99.90
57108;DHT22;42987;52.916;6.542;2023-06-24T06:03:34;17.80;99.90
57108;DHT22;42987;52.916;6.542;2023-06-24T06:06:00;17.90;99.90
57108;DHT22;42987;52.916;6.542;2023-06-24T06:08:26;18.00;99.90
57108;DHT22;42987;52.916;6.542;2023-06-24T06:10:51;18.10;99.90
57108;DHT22;42987;52.916;6.542;2023-06-24T06:13:17;18.20;99.90
57108;DHT22;42987;52.916;6.542;2023-06-24T06:15:43;18.30;99.90
57108;DHT22;42987;52.916;6.542;2023-06-24T06:18:09;18.40;99.90
57108;DHT22;42987;52.916;6.542;2023-06-24T06:20:35;18.50;99.90
57108;DHT22;42987;52.916;6.542;2023-06-24T06:23:01;18.60;99.90
57108;DHT22;42987;52.916;6.542;2023-06-24T06:25:27;18.70;99.90
57108;DHT22;42987;52.916;6.542;2023-06-24T06:27:52;18.80;99.90
57108;DHT22;42987;52.916;6.542;2023-06-24T06:30:18;18.90;99.90
57108;DHT22;42987;52.916;6.542;2023-06-24T06:32:44;19.10;99.90
57108;DHT22;42987;52.916;6.542;2023-06-24T06:35:10;19.20;99.90
57108;DHT22;42987;52.916;6.542;2023-06-24T06:37:35;19.30;99.90
57108;DHT22;42987;52.916;6.542;2023-06-24T06:40:04;19.40;99.90
57108;DHT22;42987;52.916;6.542;2023-06-24T06:42:30;19.50;99.90
57108;DHT22;42987;52.916;6.542;2023-06-24T06:44:56;19.70;99.90
57108;DHT22;42987;52.916;6.542;2023-06-24T06:47:22;19.80;99.90
57108;DHT22;42987;52.916;6.542;2023-06-24T06:49:48;19.90;99.90
57108;DHT22;42987;52.916;6.542;2023-06-24T06:52:14;20.00;99.90
57108;DHT22;42987;52.916;6.542;2023-06-24T06:54:40;20.20;99.90
57108;DHT22;42987;52.916;6.542;2023-06-24T06:57:06;20.30;99.90
57108;DHT22;42987;52.916;6.542;2023-06-24T06:59:35;20.40;99.90
57108;DHT22;42987;52.916;6.542;2023-06-24T07:02:03;20.50;99.90
57108;DHT22;42987;52.916;6.542;2023-06-24T07:04:33;20.60;99.90
57108;DHT22;42987;52.916;6.542;2023-06-24T07:06:58;20.70;99.90
57108;DHT22;42987;52.916;6.542;2023-06-24T07:09:24;20.80;99.90
57108;DHT22;42987;52.916;6.542;2023-06-24T07:11:50;21.00;99.90
57108;DHT22;42987;52.916;6.542;2023-06-24T07:14:16;21.20;99.90
57108;DHT22;42987;52.916;6.542;2023-06-24T07:16:41;21.30;99.90
57108;DHT22;42987;52.916;6.542;2023-06-24T07:19:10;21.50;99.90
57108;DHT22;42987;52.916;6.542;2023-06-24T07:21:35;21.60;99.90
57108;DHT22;42987;52.916;6.542;2023-06-24T07:24:01;21.70;99.90
57108;DHT22;42987;52.916;6.542;2023-06-24T07:26:30;21.90;99.90
57108;DHT22;42987;52.916;6.542;2023-06-24T07:28:57;22.10;99.90
57108;DHT22;42987;52.916;6.542;2023-06-24T07:31:25;22.40;99.90
57108;DHT22;42987;52.916;6.542;2023-06-24T07:33:52;22.50;99.90
57108;DHT22;42987;52.916;6.542;2023-06-24T07:36:18;22.60;99.90
57108;DHT22;42987;52.916;6.542;2023-06-24T07:38:44;22.60;99.90
57108;DHT22;42987;52.916;6.542;2023-06-24T07:41:10;22.60;99.90
57108;DHT22;42987;52.916;6.542;2023-06-24T07:43:36;22.60;99.90
57108;DHT22;42987;52.916;6.542;2023-06-24T07:46:02;22.60;99.90
57108;DHT22;42987;52.916;6.542;2023-06-24T07:48:28;22.70;99.90
57108;DHT22;42987;52.916;6.542;2023-06-24T07:50:54;22.90;99.90
57108;DHT22;42987;52.916;6.542;2023-06-24T07:53:20;23.00;99.90
57108;DHT22;42987;52.916;6.542;2023-06-24T07:55:45;23.10;99.90
57108;DHT22;42987;52.916;6.542;2023-06-24T07:58:11;23.30;99.90
57108;DHT22;42987;52.916;6.542;2023-06-24T08:00:37;23.40;99.90
57108;DHT22;42987;52.916;6.542;2023-06-24T08:03:03;23.50;99.90
57108;DHT22;42987;52.916;6.542;2023-06-24T08:05:29;23.60;99.90
57108;DHT22;42987;52.916;6.542;2023-06-24T08:07:55;23.70;99.90
57108;DHT22;42987;52.916;6.542;2023-06-24T08:10:21;23.90;99.90
57108;DHT22;42987;52.916;6.542;2023-06-24T08:12:47;24.00;98.90
57108;DHT22;42987;52.916;6.542;2023-06-24T08:15:13;24.10;97.70
57108;DHT22;42987;52.916;6.542;2023-06-24T08:17:39;24.30;97.90
57108;DHT22;42987;52.916;6.542;2023-06-24T08:20:05;24.40;96.70
57108;DHT22;42987;52.916;6.542;2023-06-24T08:22:31;24.50;95.70
57108;DHT22;42987;52.916;6.542;2023-06-24T08:24:59;24.60;96.10
57108;DHT22;42987;52.916;6.542;2023-06-24T08:27:25;24.60;95.30
57108;DHT22;42987;52.916;6.542;2023-06-24T08:29:51;24.60;95.50
57108;DHT22;42987;52.916;6.542;2023-06-24T08:32:17;24.60;95.70
57108;DHT22;42987;52.916;6.542;2023-06-24T08:34:43;24.70;96.30
57108;DHT22;42987;52.916;6.542;2023-06-24T08:37:09;24.90;94.70
57108;DHT22;42987;52.916;6.542;2023-06-24T08:39:34;25.10;93.20
57108;DHT22;42987;52.916;6.542;2023-06-24T08:42:00;25.20;92.00
57108;DHT22;42987;52.916;6.542;2023-06-24T08:44:26;25.20;93.10
57108;DHT22;42987;52.916;6.542;2023-06-24T08:46:52;25.30;91.90
57108;DHT22;42987;52.916;6.542;2023-06-24T08:51:50;25.30;91.10
57108;DHT22;42987;52.916;6.542;2023-06-24T08:54:23;25.40;90.00
57108;DHT22;42987;52.916;6.542;2023-06-24T08:56:50;25.60;88.00
57108;DHT22;42987;52.916;6.542;2023-06-24T08:59:16;25.70;86.50
57108;DHT22;42987;52.916;6.542;2023-06-24T09:01:46;25.80;85.20
57108;DHT22;42987;52.916;6.542;2023-06-24T09:04:12;25.90;81.70
57108;DHT22;42987;52.916;6.542;2023-06-24T09:06:38;25.80;78.20
57108;DHT22;42987;52.916;6.542;2023-06-24T09:09:03;25.80;78.80
57108;DHT22;42987;52.916;6.542;2023-06-24T09:11:30;25.70;78.70
57108;DHT22;42987;52.916;6.542;2023-06-24T09:14:00;25.60;78.50
57108;DHT22;42987;52.916;6.542;2023-06-24T09:16:27;25.70;78.70
57108;DHT22;42987;52.916;6.542;2023-06-24T09:18:54;25.80;79.80
57108;DHT22;42987;52.916;6.542;2023-06-24T09:21:24;25.90;83.20
57108;DHT22;42987;52.916;6.542;2023-06-24T09:23:57;26.10;82.40
57108;DHT22;42987;52.916;6.542;2023-06-24T09:26:27;26.20;79.60
57108;DHT22;42987;52.916;6.542;2023-06-24T09:28:56;26.30;77.40
57108;DHT22;42987;52.916;6.542;2023-06-24T09:31:23;26.30;76.40
57108;DHT22;42987;52.916;6.542;2023-06-24T09:33:49;26.40;76.90
57108;DHT22;42987;52.916;6.542;2023-06-24T09:36:16;26.40;77.90
57108;DHT22;42987;52.916;6.542;2023-06-24T09:38:45;26.50;75.70
57108;DHT22;42987;52.916;6.542;2023-06-24T09:41:11;26.50;75.80
57108;DHT22;42987;52.916;6.542;2023-06-24T09:43:38;26.70;76.20
57108;DHT22;42987;52.916;6.542;2023-06-24T09:46:06;26.80;77.10
57108;DHT22;42987;52.916;6.542;2023-06-24T09:48:35;26.90;77.60
57108;DHT22;42987;52.916;6.542;2023-06-24T09:51:03;27.00;74.90
57108;DHT22;42987;52.916;6.542;2023-06-24T09:53:35;27.00;73.40
57108;DHT22;42987;52.916;6.542;2023-06-24T09:56:02;27.00;73.70
57108;DHT22;42987;52.916;6.542;2023-06-24T09:58:34;27.20;73.70
57108;DHT22;42987;52.916;6.542;2023-06-24T10:01:05;27.30;74.10
57108;DHT22;42987;52.916;6.542;2023-06-24T10:03:33;27.30;72.10
57108;DHT22;42987;52.916;6.542;2023-06-24T10:06:06;27.40;71.60
57108;DHT22;42987;52.916;6.542;2023-06-24T10:08:32;27.50;74.60
57108;DHT22;42987;52.916;6.542;2023-06-24T10:10:59;27.60;73.60
57108;DHT22;42987;52.916;6.542;2023-06-24T10:13:25;27.60;71.00
57108;DHT22;42987;52.916;6.542;2023-06-24T10:15:52;27.60;69.50
57108;DHT22;42987;52.916;6.542;2023-06-24T10:21:08;27.70;70.60
57108;DHT22;42987;52.916;6.542;2023-06-24T10:23:52;27.80;69.70
57108;DHT22;42987;52.916;6.542;2023-06-24T10:26:35;27.90;71.40
57108;DHT22;42987;52.916;6.542;2023-06-24T10:31:51;28.00;71.10
57108;DHT22;42987;52.916;6.542;2023-06-24T10:37:00;28.30;70.00
57108;DHT22;42987;52.916;6.542;2023-06-24T10:42:26;28.40;68.50
57108;DHT22;42987;52.916;6.542;2023-06-24T10:44:53;28.50;70.70
57108;DHT22;42987;52.916;6.542;2023-06-24T10:47:19;28.50;66.90
57108;DHT22;42987;52.916;6.542;2023-06-24T10:49:48;28.50;68.60
57108;DHT22;42987;52.916;6.542;2023-06-24T10:52:14;28.60;68.20
57108;DHT22;42987;52.916;6.542;2023-06-24T10:54:43;28.60;67.70
57108;DHT22;42987;52.916;6.542;2023-06-24T10:57:11;28.60;70.60
57108;DHT22;42987;52.916;6.542;2023-06-24T10:59:41;28.80;71.80
57108;DHT22;42987;52.916;6.542;2023-06-24T11:02:13;29.10;71.10
57108;DHT22;42987;52.916;6.542;2023-06-24T11:04:49;29.20;67.80
57108;DHT22;42987;52.916;6.542;2023-06-24T11:07:18;29.30;68.70
57108;DHT22;42987;52.916;6.542;2023-06-24T11:09:50;29.30;71.10
57108;DHT22;42987;52.916;6.542;2023-06-24T11:12:17;29.40;70.20
57108;DHT22;42987;52.916;6.542;2023-06-24T11:14:43;29.50;69.20
57108;DHT22;42987;52.916;6.542;2023-06-24T11:17:09;29.40;70.50
57108;DHT22;42987;52.916;6.542;2023-06-24T11:19:35;29.40;69.90
57108;DHT22;42987;52.916;6.542;2023-06-24T11:22:06;29.20;71.20
57108;DHT22;42987;52.916;6.542;2023-06-24T11:24:35;29.00;70.80
57108;DHT22;42987;52.916;6.542;2023-06-24T11:27:01;28.80;71.60
57108;DHT22;42987;52.916;6.542;2023-06-24T11:29:31;28.60;71.70
57108;DHT22;42987;52.916;6.542;2023-06-24T11:32:08;28.30;70.50
57108;DHT22;42987;52.916;6.542;2023-06-24T11:34:35;28.00;70.40
57108;DHT22;42987;52.916;6.542;2023-06-24T11:37:15;27.80;73.70
57108;DHT22;42987;52.916;6.542;2023-06-24T11:39:41;27.70;73.90
57108;DHT22;42987;52.916;6.542;2023-06-24T11:42:08;27.70;74.70
57108;DHT22;42987;52.916;6.542;2023-06-24T11:44:35;27.90;74.10
57108;DHT22;42987;52.916;6.542;2023-06-24T11:47:07;28.10;72.30
57108;DHT22;42987;52.916;6.542;2023-06-24T11:49:54;28.20;72.80
57108;DHT22;42987;52.916;6.542;2023-06-24T11:52:41;28.40;70.80
57108;DHT22;42987;52.916;6.542;2023-06-24T11:55:27;28.60;71.90
57108;DHT22;42987;52.916;6.542;2023-06-24T11:57:57;28.70;72.40
57108;DHT22;42987;52.916;6.542;2023-06-24T12:02:57;28.40;73.50
57108;DHT22;42987;52.916;6.542;2023-06-24T12:05:26;28.20;73.70
57108;DHT22;42987;52.916;6.542;2023-06-24T12:07:59;28.30;72.50
57108;DHT22;42987;52.916;6.542;2023-06-24T12:10:25;28.50;75.60
57108;DHT22;42987;52.916;6.542;2023-06-24T12:12:57;28.70;73.70
57108;DHT22;42987;52.916;6.542;2023-06-24T12:15:23;28.60;71.40
57108;DHT22;42987;52.916;6.542;2023-06-24T12:17:52;28.40;73.50
57108;DHT22;42987;52.916;6.542;2023-06-24T12:20:18;28.30;74.20
57108;DHT22;42987;52.916;6.542;2023-06-24T12:22:48;28.50;74.40
57108;DHT22;42987;52.916;6.542;2023-06-24T12:25:15;28.70;73.90
57108;DHT22;42987;52.916;6.542;2023-06-24T12:27:42;28.90;74.80
57108;DHT22;42987;52.916;6.542;2023-06-24T12:30:09;29.10;76.80
57108;DHT22;42987;52.916;6.542;2023-06-24T12:32:36;29.10;72.10
57108;DHT22;42987;52.916;6.542;2023-06-24T12:35:03;29.30;75.00
57108;DHT22;42987;52.916;6.542;2023-06-24T12:37:32;29.40;73.80
57108;DHT22;42987;52.916;6.542;2023-06-24T12:40:03;29.40;70.80
57108;DHT22;42987;52.916;6.542;2023-06-24T12:42:29;29.30;70.30
57108;DHT22;42987;52.916;6.542;2023-06-24T12:44:55;29.20;71.30
57108;DHT22;42987;52.916;6.542;2023-06-24T12:47:22;28.90;73.90
57108;DHT22;42987;52.916;6.542;2023-06-24T12:49:50;28.70;75.50
57108;DHT22;42987;52.916;6.542;2023-06-24T12:52:16;28.50;74.60
57108;DHT22;42987;52.916;6.542;2023-06-24T12:54:42;28.30;74.90
57108;DHT22;42987;52.916;6.542;2023-06-24T12:57:08;28.10;74.60
57108;DHT22;42987;52.916;6.542;2023-06-24T12:59:34;27.90;75.70
57108;DHT22;42987;52.916;6.542;2023-06-24T13:02:00;27.90;76.10
57108;DHT22;42987;52.916;6.542;2023-06-24T13:04:26;27.70;74.90
57108;DHT22;42987;52.916;6.542;2023-06-24T13:06:52;27.60;76.40
57108;DHT22;42987;52.916;6.542;2023-06-24T13:09:18;27.60;77.60
57108;DHT22;42987;52.916;6.542;2023-06-24T13:11:44;27.70;77.90
57108;DHT22;42987;52.916;6.542;2023-06-24T13:14:10;27.80;74.60
57108;DHT22;42987;52.916;6.542;2023-06-24T13:16:42;27.80;73.30
57108;DHT22;42987;52.916;6.542;2023-06-24T13:19:08;28.00;73.00
57108;DHT22;42987;52.916;6.542;2023-06-24T13:21:34;28.00;75.70
57108;DHT22;42987;52.916;6.542;2023-06-24T13:23:59;28.00;77.00
57108;DHT22;42987;52.916;6.542;2023-06-24T13:26:25;28.20;74.10
57108;DHT22;42987;52.916;6.542;2023-06-24T13:28:51;28.40;70.70
57108;DHT22;42987;52.916;6.542;2023-06-24T13:31:21;28.40;68.30
57108;DHT22;42987;52.916;6.542;2023-06-24T13:33:46;28.30;71.50
57108;DHT22;42987;52.916;6.542;2023-06-24T13:36:38;28.40;72.20
57108;DHT22;42987;52.916;6.542;2023-06-24T13:39:06;28.40;73.90
57108;DHT22;42987;52.916;6.542;2023-06-24T13:41:35;28.40;75.20
57108;DHT22;42987;52.916;6.542;2023-06-24T13:44:02;28.40;73.30
57108;DHT22;42987;52.916;6.542;2023-06-24T13:46:28;28.30;75.50
57108;DHT22;42987;52.916;6.542;2023-06-24T13:48:55;28.20;71.80
57108;DHT22;42987;52.916;6.542;2023-06-24T13:51:22;28.10;73.80
57108;DHT22;42987;52.916;6.542;2023-06-24T13:53:49;28.00;74.00
57108;DHT22;42987;52.916;6.542;2023-06-24T13:56:17;28.00;72.00
57108;DHT22;42987;52.916;6.542;2023-06-24T13:58:44;28.10;71.20
57108;DHT22;42987;52.916;6.542;2023-06-24T14:01:09;28.10;72.00
57108;DHT22;42987;52.916;6.542;2023-06-24T14:03:35;28.10;71.20
57108;DHT22;42987;52.916;6.542;2023-06-24T14:06:02;28.10;71.00
57108;DHT22;42987;52.916;6.542;2023-06-24T14:08:31;28.10;73.30
57108;DHT22;42987;52.916;6.542;2023-06-24T14:10:58;28.00;76.20
57108;DHT22;42987;52.916;6.542;2023-06-24T14:13:25;28.00;74.00
57108;DHT22;42987;52.916;6.542;2023-06-24T14:15:52;28.00;73.60
57108;DHT22;42987;52.916;6.542;2023-06-24T14:18:18;27.90;74.30
57108;DHT22;42987;52.916;6.542;2023-06-24T14:20:47;27.90;75.30
57108;DHT22;42987;52.916;6.542;2023-06-24T14:23:13;27.90;75.00
57108;DHT22;42987;52.916;6.542;2023-06-24T14:25:39;27.80;75.10
57108;DHT22;42987;52.916;6.542;2023-06-24T14:28:05;27.80;75.20
57108;DHT22;42987;52.916;6.542;2023-06-24T14:30:32;27.80;73.40
57108;DHT22;42987;52.916;6.542;2023-06-24T14:33:03;27.70;80.10
57108;DHT22;42987;52.916;6.542;2023-06-24T14:35:29;27.60;80.30
57108;DHT22;42987;52.916;6.542;2023-06-24T14:37:55;27.60;79.60
57108;DHT22;42987;52.916;6.542;2023-06-24T14:40:21;27.60;78.10
57108;DHT22;42987;52.916;6.542;2023-06-24T14:42:47;27.70;79.80
57108;DHT22;42987;52.916;6.542;2023-06-24T14:45:12;27.70;77.00
57108;DHT22;42987;52.916;6.542;2023-06-24T14:47:38;27.70;76.10
57108;DHT22;42987;52.916;6.542;2023-06-24T14:50:04;27.70;78.20
57108;DHT22;42987;52.916;6.542;2023-06-24T14:52:30;27.60;80.40
57108;DHT22;42987;52.916;6.542;2023-06-24T14:54:56;27.50;81.90
57108;DHT22;42987;52.916;6.542;2023-06-24T14:57:22;27.40;80.40
57108;DHT22;42987;52.916;6.542;2023-06-24T14:59:50;27.40;82.60
57108;DHT22;42987;52.916;6.542;2023-06-24T15:02:15;27.30;83.60
57108;DHT22;42987;52.916;6.542;2023-06-24T15:04:43;27.30;84.50
57108;DHT22;42987;52.916;6.542;2023-06-24T15:07:08;27.20;83.70
57108;DHT22;42987;52.916;6.542;2023-06-24T15:09:34;27.20;82.90
57108;DHT22;42987;52.916;6.542;2023-06-24T15:12:01;27.20;81.40
57108;DHT22;42987;52.916;6.542;2023-06-24T15:14:27;27.20;81.00
57108;DHT22;42987;52.916;6.542;2023-06-24T15:16:53;27.20;83.30
57108;DHT22;42987;52.916;6.542;2023-06-24T15:19:19;27.20;83.80
57108;DHT22;42987;52.916;6.542;2023-06-24T15:21:45;27.20;83.20
57108;DHT22;42987;52.916;6.542;2023-06-24T15:24:11;27.40;80.70
57108;DHT22;42987;52.916;6.542;2023-06-24T15:26:37;27.60;82.80
57108;DHT22;42987;52.916;6.542;2023-06-24T15:29:03;27.70;84.20
57108;DHT22;42987;52.916;6.542;2023-06-24T15:31:29;27.60;80.80
57108;DHT22;42987;52.916;6.542;2023-06-24T15:33:55;27.50;79.70
57108;DHT22;42987;52.916;6.542;2023-06-24T15:36:21;27.50;80.70
57108;DHT22;42987;52.916;6.542;2023-06-24T15:38:48;27.50;83.10
57108;DHT22;42987;52.916;6.542;2023-06-24T15:41:14;27.50;83.50
57108;DHT22;42987;52.916;6.542;2023-06-24T15:43:40;27.50;85.10
57108;DHT22;42987;52.916;6.542;2023-06-24T15:46:06;27.40;82.70
57108;DHT22;42987;52.916;6.542;2023-06-24T15:48:32;27.40;83.80
57108;DHT22;42987;52.916;6.542;2023-06-24T15:50:58;27.40;84.90
57108;DHT22;42987;52.916;6.542;2023-06-24T15:53:25;27.50;82.30
57108;DHT22;42987;52.916;6.542;2023-06-24T15:55:51;27.50;82.50
57108;DHT22;42987;52.916;6.542;2023-06-24T15:58:17;27.60;85.70
57108;DHT22;42987;52.916;6.542;2023-06-24T16:00:43;27.50;81.20